Time;durP1;ratioP1;P1;durP2;ratioP2;P2;SDS_P1;SDS_P2;PMS_P1;PMS_P2;Temp;Humidity;BMP_temperature;BMP_pressure;BME280_temperature;BME280_humidity;BME280_pressure;Samples;Min_cycle;Max_cycle;Signal;HPM_P1;HPM_P2
2022/03/27 00:01:41;;;;;;;32.53;10.38;;;;;;;;;;4986568;28;20081;-80
2022/03/27 00:04:10;;;;;;;24.92;10.40;;;;;;;;;;4983997;28;20026;-80
2022/03/27 00:06:35;;;;;;;25.52;9.98;;;;;;;;;;4985922;28;20015;-81
2022/03/27 00:09:00;;;;;;;28.45;10.15;;;;;;;;;;4981013;28;20194;-78
2022/03/27 00:11:27;;;;;;;24.83;10.48;;;;;;;;;;4979257;28;20034;-78
2022/03/27 00:14:01;;;;;;;27.90;10.15;;;;;;;;;;4983476;28;20105;-79
2022/03/27 00:16:27;;;;;;;18.73;9.13;;;;;;;;;;4963515;28;20038;-78
2022/03/27 00:18:53;;;;;;;27.63;10.73;;;;;;;;;;4975421;28;20031;-78
2022/03/27 00:21:21;;;;;;;29.13;9.82;;;;;;;;;;4980498;28;20081;-79
2022/03/27 00:23:47;;;;;;;19.55;8.77;;;;;;;;;;4977780;28;20023;-79
2022/03/27 00:26:13;;;;;;;20.88;9.25;;;;;;;;;;4983825;28;20038;-80
2022/03/27 00:28:39;;;;;;;20.65;9.48;;;;;;;;;;4985008;28;20026;-80
2022/03/27 00:31:09;;;;;;;24.90;10.00;;;;;;;;;;4986953;28;20045;-77
2022/03/27 00:33:35;;;;;;;24.52;9.32;;;;;;;;;;4959299;28;20474;-80
2022/03/27 00:36:02;;;;;;;31.98;9.88;;;;;;;;;;4969388;28;20504;-80
2022/03/27 00:38:29;;;;;;;27.08;10.35;;;;;;;;;;4975155;28;20026;-79
2022/03/27 00:40:55;;;;;;;26.73;11.00;;;;;;;;;;4972745;28;20529;-80
2022/03/27 00:43:22;;;;;;;26.77;10.32;;;;;;;;;;4973830;28;20587;-81
2022/03/27 00:45:48;;;;;;;23.50;9.52;;;;;;;;;;4980533;28;20034;-80
2022/03/27 00:48:18;;;;;;;24.38;9.35;;;;;;;;;;4983722;28;20026;-80
2022/03/27 00:50:44;;;;;;;28.38;11.02;;;;;;;;;;4984887;28;20347;-81
2022/03/27 00:53:10;;;;;;;29.13;9.90;;;;;;;;;;4987103;28;20022;-81
2022/03/27 00:55:35;;;;;;;25.17;10.75;;;;;;;;;;4980113;28;20443;-80
2022/03/27 00:58:01;;;;;;;24.05;10.75;;;;;;;;;;4976001;28;20031;-80
2022/03/27 01:00:39;;;;;;;28.45;9.80;;;;;;;;;;4975905;28;20019;-80
2022/03/27 01:03:15;;;;;;;24.75;9.85;;;;;;;;;;4981382;28;20027;-82
2022/03/27 01:05:43;;;;;;;24.30;9.13;;;;;;;;;;4975241;28;20018;-80
2022/03/27 01:08:10;;;;;;;24.67;9.70;;;;;;;;;;4979472;28;20034;-81
2022/03/27 01:10:36;;;;;;;28.48;9.48;;;;;;;;;;4972818;28;20030;-79
2022/03/27 01:13:16;;;;;;;20.90;8.90;;;;;;;;;;4974491;28;20038;-80
2022/03/27 01:15:45;;;;;;;26.58;11.13;;;;;;;;;;4975546;28;20019;-79
2022/03/27 01:18:14;;;;;;;22.52;9.63;;;;;;;;;;4973232;28;20025;-80
2022/03/27 01:20:41;;;;;;;30.50;10.00;;;;;;;;;;4971673;28;20103;-80
2022/03/27 01:23:09;;;;;;;27.85;10.10;;;;;;;;;;4992513;28;20057;-81
2022/03/27 01:25:36;;;;;;;29.60;10.40;;;;;;;;;;4982323;28;20045;-79
2022/03/27 01:28:02;;;;;;;21.77;9.38;;;;;;;;;;4988217;28;20030;-79
2022/03/27 01:30:27;;;;;;;22.25;9.85;;;;;;;;;;4986519;28;20030;-80
2022/03/27 01:32:53;;;;;;;21.63;9.18;;;;;;;;;;4987557;28;20031;-79
2022/03/27 01:35:19;;;;;;;19.20;9.27;;;;;;;;;;4989400;28;20576;-81
2022/03/27 01:37:48;;;;;;;24.67;9.90;;;;;;;;;;4985691;28;20066;-80
2022/03/27 01:40:14;;;;;;;23.02;9.52;;;;;;;;;;4987871;28;20068;-81
2022/03/27 01:42:39;;;;;;;27.38;9.77;;;;;;;;;;4992840;28;20066;-80
2022/03/27 01:45:06;;;;;;;30.58;9.75;;;;;;;;;;4992403;28;20037;-81
2022/03/27 01:47:32;;;;;;;26.33;10.02;;;;;;;;;;4991803;28;20018;-79
2022/03/27 01:49:57;;;;;;;29.63;11.25;;;;;;;;;;4987176;28;20031;-80
2022/03/27 01:52:23;;;;;;;24.67;10.30;;;;;;;;;;4993185;28;20400;-81
2022/03/27 01:54:48;;;;;;;23.38;9.57;;;;;;;;;;4992963;28;20132;-81
2022/03/27 01:57:13;;;;;;;28.10;9.48;;;;;;;;;;4982246;28;20025;-79
2022/03/27 01:59:39;;;;;;;24.48;10.30;;;;;;;;;;5003612;28;20038;-80
2022/03/27 02:02:05;;;;;;;22.42;10.52;;;;;;;;;;5001348;28;20140;-80
2022/03/27 02:04:30;;;;;;;26.73;10.00;;;;;;;;;;4998075;28;20113;-81
2022/03/27 02:06:56;;;;;;;27.08;9.90;;;;;;;;;;5008059;28;20053;-81
2022/03/27 02:09:21;;;;;;;20.63;10.05;;;;;;;;;;4998638;28;20473;-80
2022/03/27 02:11:47;;;;;;;27.58;11.05;;;;;;;;;;5001194;28;20093;-80
2022/03/27 02:14:12;;;;;;;28.67;10.00;;;;;;;;;;4999341;28;20133;-80
2022/03/27 02:16:38;;;;;;;25.02;9.82;;;;;;;;;;5007918;28;20018;-81
2022/03/27 02:19:09;;;;;;;21.38;9.52;;;;;;;;;;5000674;28;20045;-80
2022/03/27 02:21:35;;;;;;;23.83;9.07;;;;;;;;;;5006775;28;20033;-80
2022/03/27 02:24:03;;;;;;;26.27;10.77;;;;;;;;;;4982067;28;20030;-80
2022/03/27 02:26:29;;;;;;;23.80;9.43;;;;;;;;;;4998505;28;20077;-80
2022/03/27 02:28:54;;;;;;;25.33;8.77;;;;;;;;;;5008320;28;20065;-81
2022/03/27 02:31:20;;;;;;;22.48;10.60;;;;;;;;;;5000452;28;20038;-80
2022/03/27 02:33:45;;;;;;;24.25;9.32;;;;;;;;;;5000190;28;20030;-80
2022/03/27 02:36:11;;;;;;;23.90;9.00;;;;;;;;;;5000189;28;20062;-80
2022/03/27 02:38:37;;;;;;;23.38;9.45;;;;;;;;;;4999591;28;20072;-80
2022/03/27 02:41:04;;;;;;;18.90;8.90;;;;;;;;;;4999185;28;20373;-80
2022/03/27 02:43:29;;;;;;;26.98;9.63;;;;;;;;;;5001033;28;20053;-80
2022/03/27 02:45:55;;;;;;;33.45;10.25;;;;;;;;;;4996852;28;20409;-80
2022/03/27 02:48:21;;;;;;;19.98;8.75;;;;;;;;;;4999415;28;20026;-80
2022/03/27 02:50:47;;;;;;;28.77;10.95;;;;;;;;;;5007278;28;20030;-80
2022/03/27 02:53:12;;;;;;;23.48;9.98;;;;;;;;;;4999384;28;20034;-80
2022/03/27 02:55:38;;;;;;;21.98;10.75;;;;;;;;;;4995805;28;20041;-81
2022/03/27 02:58:04;;;;;;;23.92;8.80;;;;;;;;;;4999777;28;20386;-80
2022/03/27 03:00:29;;;;;;;24.65;10.10;;;;;;;;;;5004888;28;20092;-80
2022/03/27 03:02:56;;;;;;;22.65;10.60;;;;;;;;;;5005199;28;20026;-81
2022/03/27 03:05:21;;;;;;;28.70;9.98;;;;;;;;;;5003509;28;20032;-81
2022/03/27 03:07:47;;;;;;;26.80;10.35;;;;;;;;;;4999441;28;20117;-80
2022/03/27 03:10:16;;;;;;;21.83;9.60;;;;;;;;;;4999989;28;20085;-81
2022/03/27 03:12:42;;;;;;;23.63;9.60;;;;;;;;;;4999019;28;20085;-80
2022/03/27 03:15:09;;;;;;;27.52;10.10;;;;;;;;;;5002216;28;20034;-80
2022/03/27 03:17:35;;;;;;;25.98;9.43;;;;;;;;;;5004333;28;20105;-79
2022/03/27 03:20:00;;;;;;;27.75;9.52;;;;;;;;;;4996674;28;20026;-80
2022/03/27 03:22:27;;;;;;;20.77;9.73;;;;;;;;;;5011672;28;20044;-81
2022/03/27 03:24:52;;;;;;;20.65;9.63;;;;;;;;;;5001918;28;20089;-80
2022/03/27 03:27:18;;;;;;;20.88;9.32;;;;;;;;;;4983479;28;20035;-79
2022/03/27 03:29:43;;;;;;;20.10;9.77;;;;;;;;;;5004025;28;20465;-80
2022/03/27 03:32:09;;;;;;;21.90;9.23;;;;;;;;;;5002120;28;20048;-80
2022/03/27 03:34:34;;;;;;;27.90;10.57;;;;;;;;;;5005444;28;20057;-80
2022/03/27 03:37:00;;;;;;;23.15;10.13;;;;;;;;;;5004997;28;20469;-80
2022/03/27 03:39:25;;;;;;;23.10;10.38;;;;;;;;;;5016118;28;20042;-79
2022/03/27 03:41:51;;;;;;;23.20;9.48;;;;;;;;;;5009892;28;21383;-80
2022/03/27 03:44:17;;;;;;;23.67;9.85;;;;;;;;;;4987031;28;20030;-81
2022/03/27 03:46:43;;;;;;;25.15;9.40;;;;;;;;;;5011657;28;20082;-81
2022/03/27 03:49:08;;;;;;;21.80;9.50;;;;;;;;;;4986442;28;20050;-80
2022/03/27 03:51:35;;;;;;;23.80;9.85;;;;;;;;;;5007251;28;20089;-80
2022/03/27 03:54:06;;;;;;;20.50;7.88;;;;;;;;;;4999740;28;20150;-79
2022/03/27 03:56:32;;;;;;;19.63;8.57;;;;;;;;;;5006384;28;20013;-81
2022/03/27 03:58:58;;;;;;;26.92;9.80;;;;;;;;;;5011328;28;20045;-80
2022/03/27 04:01:23;;;;;;;23.30;9.48;;;;;;;;;;5002518;28;20049;-80
2022/03/27 04:03:49;;;;;;;27.08;10.60;;;;;;;;;;5001665;28;20026;-80
2022/03/27 04:06:15;;;;;;;23.13;9.70;;;;;;;;;;4997357;28;20093;-80
2022/03/27 04:08:40;;;;;;;27.23;10.25;;;;;;;;;;5003479;28;20104;-80
2022/03/27 04:11:05;;;;;;;23.63;10.23;;;;;;;;;;4998484;28;20037;-79
2022/03/27 04:13:31;;;;;;;25.33;10.15;;;;;;;;;;4981338;28;20054;-79
2022/03/27 04:15:56;;;;;;;25.30;9.40;;;;;;;;;;4985913;28;20069;-80
2022/03/27 04:18:22;;;;;;;26.80;9.57;;;;;;;;;;5005457;28;20477;-80
2022/03/27 04:20:48;;;;;;;23.70;9.57;;;;;;;;;;5006893;28;20469;-81
2022/03/27 04:23:14;;;;;;;26.10;9.75;;;;;;;;;;4996079;28;20030;-81
2022/03/27 04:25:39;;;;;;;25.67;9.77;;;;;;;;;;4998103;28;20262;-81
2022/03/27 04:28:07;;;;;;;28.80;9.70;;;;;;;;;;5008529;28;20061;-81
2022/03/27 04:30:33;;;;;;;21.85;8.35;;;;;;;;;;4999654;28;20037;-80
2022/03/27 04:32:58;;;;;;;23.63;9.57;;;;;;;;;;4998425;28;20030;-80
2022/03/27 04:35:24;;;;;;;22.20;8.45;;;;;;;;;;4997831;28;20127;-82
2022/03/27 04:37:49;;;;;;;25.13;10.38;;;;;;;;;;4981338;28;20093;-81
2022/03/27 04:40:14;;;;;;;25.45;9.05;;;;;;;;;;4987810;28;20031;-81
2022/03/27 04:42:43;;;;;;;22.05;9.70;;;;;;;;;;5003914;28;20030;-81
2022/03/27 04:45:09;;;;;;;23.42;9.48;;;;;;;;;;5001752;28;20045;-81
2022/03/27 04:47:35;;;;;;;26.98;9.20;;;;;;;;;;5006079;28;20171;-80
2022/03/27 04:50:04;;;;;;;21.13;9.35;;;;;;;;;;5006511;28;20054;-80
2022/03/27 04:52:30;;;;;;;26.33;9.75;;;;;;;;;;5010455;28;20034;-81
2022/03/27 04:54:55;;;;;;;22.75;9.77;;;;;;;;;;4999556;28;20125;-80
2022/03/27 04:57:21;;;;;;;29.42;10.07;;;;;;;;;;5011317;28;20029;-81
2022/03/27 04:59:47;;;;;;;22.88;10.18;;;;;;;;;;5007674;28;20033;-80
2022/03/27 05:02:12;;;;;;;23.15;9.65;;;;;;;;;;5002135;28;20507;-80
2022/03/27 05:04:40;;;;;;;30.98;10.95;;;;;;;;;;5001804;28;20041;-81
2022/03/27 05:07:05;;;;;;;29.80;11.55;;;;;;;;;;5002639;28;20146;-81
2022/03/27 05:09:31;;;;;;;22.25;10.27;;;;;;;;;;5002795;28;20081;-80
2022/03/27 05:11:56;;;;;;;24.88;10.07;;;;;;;;;;5002456;28;20038;-81
2022/03/27 05:14:22;;;;;;;28.17;10.25;;;;;;;;;;4998665;28;20385;-80
2022/03/27 05:16:47;;;;;;;21.77;9.68;;;;;;;;;;4996774;28;20054;-80
2022/03/27 05:19:13;;;;;;;21.27;9.57;;;;;;;;;;5010363;28;20041;-82
2022/03/27 05:21:38;;;;;;;26.27;10.18;;;;;;;;;;5004087;28;20425;-80
2022/03/27 05:24:05;;;;;;;22.50;9.68;;;;;;;;;;4984674;28;20125;-81
2022/03/27 05:26:30;;;;;;;20.23;9.32;;;;;;;;;;5005899;28;20130;-80
2022/03/27 05:28:55;;;;;;;23.73;9.30;;;;;;;;;;5004679;28;20498;-80
2022/03/27 05:31:21;;;;;;;22.58;9.27;;;;;;;;;;5004837;28;20026;-81
2022/03/27 05:33:47;;;;;;;21.58;10.25;;;;;;;;;;5009132;28;20029;-80
2022/03/27 05:36:12;;;;;;;30.13;10.05;;;;;;;;;;5002922;28;20026;-80
2022/03/27 05:38:39;;;;;;;24.23;8.60;;;;;;;;;;5003184;28;20044;-80
2022/03/27 05:41:08;;;;;;;22.20;10.02;;;;;;;;;;4985083;28;20489;-81
2022/03/27 05:43:34;;;;;;;21.70;9.85;;;;;;;;;;5002159;28;20086;-80
2022/03/27 05:46:00;;;;;;;24.17;10.15;;;;;;;;;;4998426;28;20061;-80
2022/03/27 05:48:26;;;;;;;21.08;10.00;;;;;;;;;;5011389;28;20026;-80
2022/03/27 05:50:51;;;;;;;20.20;9.70;;;;;;;;;;4999166;28;20030;-80
2022/03/27 05:53:17;;;;;;;29.05;10.60;;;;;;;;;;5011845;28;20476;-80
2022/03/27 05:55:43;;;;;;;24.75;9.23;;;;;;;;;;5000254;28;20468;-80
2022/03/27 05:58:08;;;;;;;23.15;9.13;;;;;;;;;;4996619;28;20058;-80
2022/03/27 06:00:34;;;;;;;31.08;10.32;;;;;;;;;;5006800;28;20030;-81
2022/03/27 06:03:00;;;;;;;31.80;10.07;;;;;;;;;;5002085;28;20026;-80
2022/03/27 06:05:26;;;;;;;20.77;9.77;;;;;;;;;;4983862;28;20062;-80
2022/03/27 06:07:56;;;;;;;24.63;10.02;;;;;;;;;;5000965;28;20022;-80
2022/03/27 06:10:24;;;;;;;21.40;8.77;;;;;;;;;;5001326;28;20030;-80
2022/03/27 06:12:50;;;;;;;21.10;10.77;;;;;;;;;;5002183;28;20396;-80
2022/03/27 06:15:17;;;;;;;23.08;9.60;;;;;;;;;;4981681;28;20205;-80
2022/03/27 06:17:45;;;;;;;24.35;9.85;;;;;;;;;;5003085;28;20362;-81
2022/03/27 06:20:13;;;;;;;24.52;11.00;;;;;;;;;;5011520;28;20412;-80
2022/03/27 06:22:39;;;;;;;29.50;10.23;;;;;;;;;;5014640;28;20023;-81
2022/03/27 06:25:06;;;;;;;26.67;9.95;;;;;;;;;;4983345;28;20022;-81
2022/03/27 06:27:32;;;;;;;22.80;10.52;;;;;;;;;;5001980;28;20106;-81
2022/03/27 06:29:57;;;;;;;34.05;12.43;;;;;;;;;;4982159;28;20061;-81
2022/03/27 06:32:26;;;;;;;21.35;9.95;;;;;;;;;;5001528;28;20041;-81
2022/03/27 06:34:55;;;;;;;30.67;11.02;;;;;;;;;;4982489;28;20056;-81
2022/03/27 06:37:20;;;;;;;29.48;11.23;;;;;;;;;;5001743;28;20105;-79
2022/03/27 06:39:46;;;;;;;28.55;9.93;;;;;;;;;;5000628;28;20361;-81
2022/03/27 06:42:12;;;;;;;29.33;10.95;;;;;;;;;;4999855;28;20026;-82
2022/03/27 06:44:37;;;;;;;22.92;10.18;;;;;;;;;;4999785;28;20126;-82
2022/03/27 06:47:04;;;;;;;25.23;10.13;;;;;;;;;;4999773;28;20046;-82
2022/03/27 06:49:29;;;;;;;32.42;11.35;;;;;;;;;;4976133;28;20022;-81
2022/03/27 06:51:54;;;;;;;23.88;12.20;;;;;;;;;;5008445;28;20444;-81
2022/03/27 06:54:21;;;;;;;24.27;11.25;;;;;;;;;;5007781;28;20048;-82
2022/03/27 06:56:46;;;;;;;21.02;11.85;;;;;;;;;;4999186;28;20026;-81
2022/03/27 06:59:11;;;;;;;28.80;12.93;;;;;;;;;;5009143;28;20188;-81
2022/03/27 07:04:20;;;;;;;28.45;12.68;;;;;;;;;;4990623;28;20080;-80
2022/03/27 07:06:46;;;;;;;33.80;12.85;;;;;;;;;;5006151;28;20050;-81
2022/03/27 07:09:13;;;;;;;27.92;12.65;;;;;;;;;;5000733;28;20032;-80
2022/03/27 07:11:38;;;;;;;23.98;11.77;;;;;;;;;;4999893;28;20061;-80
2022/03/27 07:14:03;;;;;;;24.08;12.30;;;;;;;;;;5000624;28;20038;-79
2022/03/27 07:16:30;;;;;;;29.38;12.50;;;;;;;;;;5005229;28;20018;-82
2022/03/27 07:18:55;;;;;;;25.42;12.48;;;;;;;;;;4999310;28;20101;-80
2022/03/27 07:21:21;;;;;;;25.63;12.98;;;;;;;;;;4999788;28;20057;-80
2022/03/27 07:23:46;;;;;;;23.40;13.00;;;;;;;;;;5000726;28;20037;-80
2022/03/27 07:26:12;;;;;;;29.20;13.98;;;;;;;;;;5001448;28;20497;-81
2022/03/27 07:28:37;;;;;;;31.27;13.48;;;;;;;;;;5006876;28;20026;-80
2022/03/27 07:31:03;;;;;;;25.13;13.00;;;;;;;;;;5001029;28;20481;-80
2022/03/27 07:33:28;;;;;;;27.65;13.77;;;;;;;;;;5001137;28;20027;-80
2022/03/27 07:35:55;;;;;;;33.20;13.30;;;;;;;;;;5000620;28;20030;-80
2022/03/27 07:38:20;;;;;;;25.45;12.95;;;;;;;;;;5001669;28;20027;-80
2022/03/27 07:40:47;;;;;;;22.80;13.07;;;;;;;;;;5000363;28;20034;-81
2022/03/27 07:43:13;;;;;;;26.15;13.45;;;;;;;;;;4982837;28;20098;-81
2022/03/27 07:45:38;;;;;;;26.60;12.75;;;;;;;;;;5005916;28;20029;-81
2022/03/27 07:48:05;;;;;;;22.75;12.38;;;;;;;;;;4984288;28;20034;-83
2022/03/27 07:50:31;;;;;;;25.65;13.50;;;;;;;;;;5011611;28;20578;-86
2022/03/27 07:52:58;;;;;;;27.33;13.10;;;;;;;;;;5010564;28;20054;-81
2022/03/27 07:55:24;;;;;;;25.80;12.90;;;;;;;;;;4999520;28;20026;-82
2022/03/27 07:57:49;;;;;;;20.88;12.02;;;;;;;;;;4983181;28;20101;-81
2022/03/27 08:00:16;;;;;;;23.85;12.85;;;;;;;;;;4999837;28;20034;-81
2022/03/27 08:02:42;;;;;;;26.23;12.48;;;;;;;;;;4999447;28;20104;-81
2022/03/27 08:05:08;;;;;;;25.27;11.35;;;;;;;;;;4982627;28;20034;-81
2022/03/27 08:07:34;;;;;;;24.52;11.75;;;;;;;;;;5003335;28;20078;-81
2022/03/27 08:10:00;;;;;;;25.25;11.63;;;;;;;;;;5013599;28;20505;-81
2022/03/27 08:12:26;;;;;;;28.67;11.02;;;;;;;;;;4982423;28;20089;-80
2022/03/27 08:14:52;;;;;;;21.40;10.57;;;;;;;;;;4999524;28;20034;-81
2022/03/27 08:17:18;;;;;;;22.60;11.50;;;;;;;;;;5011491;28;20082;-81
2022/03/27 08:19:45;;;;;;;23.58;11.00;;;;;;;;;;5012746;28;20026;-81
2022/03/27 08:22:11;;;;;;;28.55;11.00;;;;;;;;;;4980035;28;20481;-80
2022/03/27 08:24:37;;;;;;;25.30;11.73;;;;;;;;;;4999409;28;20034;-82
2022/03/27 08:27:04;;;;;;;20.90;10.85;;;;;;;;;;4998657;28;20037;-80
2022/03/27 08:29:34;;;;;;;27.50;10.82;;;;;;;;;;5009518;28;20415;-81
2022/03/27 08:32:02;;;;;;;21.38;10.80;;;;;;;;;;5012383;28;20024;-79
2022/03/27 08:34:30;;;;;;;21.02;11.85;;;;;;;;;;5004292;28;20023;-80
2022/03/27 08:36:57;;;;;;;20.30;10.20;;;;;;;;;;5011126;28;20025;-78
2022/03/27 08:39:24;;;;;;;22.73;10.88;;;;;;;;;;5024486;28;20033;-83
2022/03/27 08:41:51;;;;;;;19.88;10.18;;;;;;;;;;4993684;28;20014;-80
2022/03/27 08:44:19;;;;;;;22.27;10.57;;;;;;;;;;5006225;28;20027;-80
2022/03/27 08:46:46;;;;;;;22.10;10.07;;;;;;;;;;5012550;28;20476;-79
2022/03/27 08:49:26;;;;;;;23.13;10.25;;;;;;;;;;5002543;28;20030;-80
2022/03/27 08:52:01;;;;;;;17.75;9.23;;;;;;;;;;4997094;28;20097;-80
2022/03/27 08:54:38;;;;;;;15.27;9.63;;;;;;;;;;4995173;28;20512;-82
2022/03/27 08:57:24;;;;;;;17.90;8.90;;;;;;;;;;5001500;28;20026;-82
2022/03/27 08:59:54;;;;;;;20.30;9.80;;;;;;;;;;4992218;28;20030;-80
2022/03/27 09:02:23;;;;;;;15.90;9.45;;;;;;;;;;4991771;28;20476;-80
2022/03/27 09:04:53;;;;;;;18.95;9.95;;;;;;;;;;4987854;28;20030;-81
2022/03/27 09:07:19;;;;;;;20.75;9.15;;;;;;;;;;4993956;28;20446;-81
2022/03/27 09:09:44;;;;;;;18.73;9.50;;;;;;;;;;4990921;28;20057;-81
2022/03/27 09:12:11;;;;;;;17.58;8.85;;;;;;;;;;4986559;28;20159;-80
2022/03/27 09:14:39;;;;;;;19.20;9.35;;;;;;;;;;4995202;28;20058;-81
2022/03/27 09:17:06;;;;;;;27.17;10.40;;;;;;;;;;4999348;28;20030;-81
2022/03/27 09:19:39;;;;;;;23.98;10.13;;;;;;;;;;5001646;28;20022;-81
2022/03/27 09:22:29;;;;;;;16.13;8.90;;;;;;;;;;5005300;28;20049;-81
2022/03/27 09:25:03;;;;;;;16.45;8.57;;;;;;;;;;4986529;28;20034;-80
2022/03/27 09:27:30;;;;;;;21.23;8.68;;;;;;;;;;4997600;28;20014;-79
2022/03/27 09:29:57;;;;;;;16.75;9.23;;;;;;;;;;4995645;28;20388;-82
2022/03/27 09:32:27;;;;;;;20.48;8.82;;;;;;;;;;5002156;28;20026;-81
2022/03/27 09:34:58;;;;;;;16.42;9.43;;;;;;;;;;5001485;28;20028;-81
2022/03/27 09:37:35;;;;;;;21.08;9.50;;;;;;;;;;5005789;28;20105;-80
2022/03/27 09:40:02;;;;;;;16.27;9.80;;;;;;;;;;4995311;28;20034;-80
2022/03/27 09:42:28;;;;;;;21.48;9.10;;;;;;;;;;4996627;28;20042;-80
2022/03/27 09:45:27;;;;;;;18.30;9.48;;;;;;;;;;4982393;28;20034;-80
2022/03/27 09:47:53;;;;;;;18.55;9.65;;;;;;;;;;5000150;28;20052;-82
2022/03/27 09:50:38;;;;;;;22.35;9.63;;;;;;;;;;5001330;28;20466;-80
2022/03/27 09:53:19;;;;;;;22.77;10.27;;;;;;;;;;4999787;28;20030;-81
2022/03/27 09:55:50;;;;;;;20.77;9.40;;;;;;;;;;4999825;28;20026;-84
2022/03/27 09:58:16;;;;;;;21.73;9.23;;;;;;;;;;4998286;28;20033;-82
2022/03/27 10:01:20;;;;;;;20.67;9.55;;;;;;;;;;5002900;28;20113;-87
2022/03/27 10:04:14;;;;;;;23.42;9.68;;;;;;;;;;4982501;28;20397;-80
2022/03/27 10:06:41;;;;;;;23.00;10.40;;;;;;;;;;4996233;28;20049;-80
2022/03/27 10:09:08;;;;;;;16.58;9.45;;;;;;;;;;4996230;28;20429;-80
2022/03/27 10:11:35;;;;;;;22.08;9.82;;;;;;;;;;5017397;28;20532;-80
2022/03/27 10:14:04;;;;;;;18.70;9.38;;;;;;;;;;4997854;28;20387;-79
2022/03/27 10:16:33;;;;;;;18.63;8.93;;;;;;;;;;4997121;28;20106;-80
2022/03/27 10:19:29;;;;;;;16.90;9.50;;;;;;;;;;4997968;28;20030;-79
2022/03/27 10:21:55;;;;;;;22.42;10.55;;;;;;;;;;4996976;28;20026;-80
2022/03/27 10:24:25;;;;;;;21.73;9.77;;;;;;;;;;4996392;28;20035;-79
2022/03/27 10:26:55;;;;;;;20.25;10.18;;;;;;;;;;5001747;28;20014;-81
2022/03/27 10:29:22;;;;;;;20.38;10.15;;;;;;;;;;4994421;28;20086;-79
2022/03/27 10:31:48;;;;;;;20.95;10.43;;;;;;;;;;5008168;28;20026;-80
2022/03/27 10:34:14;;;;;;;17.95;9.32;;;;;;;;;;5004979;28;20105;-80
2022/03/27 10:37:13;;;;;;;20.73;9.07;;;;;;;;;;5006348;28;20353;-84
2022/03/27 10:40:14;;;;;;;19.55;9.65;;;;;;;;;;4968830;28;20121;-85
2022/03/27 10:43:01;;;;;;;18.98;9.60;;;;;;;;;;5003083;28;20038;-83
2022/03/27 10:45:27;;;;;;;19.23;9.05;;;;;;;;;;4991477;28;20034;-82
2022/03/27 10:48:14;;;;;;;21.50;10.75;;;;;;;;;;5001913;28;20019;-82
2022/03/27 10:50:45;;;;;;;22.90;10.48;;;;;;;;;;5004682;28;20029;-84
2022/03/27 10:53:11;;;;;;;21.52;9.20;;;;;;;;;;5002115;28;20022;-83
2022/03/27 10:55:41;;;;;;;20.98;9.93;;;;;;;;;;4997657;28;20109;-82
2022/03/27 10:58:29;;;;;;;23.60;10.30;;;;;;;;;;4971635;28;20030;-81
2022/03/27 11:00:55;;;;;;;21.20;10.25;;;;;;;;;;4997497;28;20034;-82
2022/03/27 11:03:45;;;;;;;16.85;8.82;;;;;;;;;;5016650;28;20025;-81
2022/03/27 11:06:25;;;;;;;22.05;9.13;;;;;;;;;;4984487;28;20033;-83
2022/03/27 11:08:51;;;;;;;25.40;10.38;;;;;;;;;;4992851;28;20030;-82
2022/03/27 11:11:35;;;;;;;18.63;10.30;;;;;;;;;;5002971;28;20038;-81
2022/03/27 11:14:01;;;;;;;21.15;10.13;;;;;;;;;;5001654;28;20049;-82
2022/03/27 11:16:27;;;;;;;21.42;8.88;;;;;;;;;;4964432;28;20070;-81
2022/03/27 11:18:52;;;;;;;19.35;10.02;;;;;;;;;;4976882;28;20042;-82
2022/03/27 11:21:27;;;;;;;23.40;10.48;;;;;;;;;;4999925;28;20031;-84
2022/03/27 11:24:15;;;;;;;23.88;10.77;;;;;;;;;;4991846;28;20033;-83
2022/03/27 11:26:41;;;;;;;21.02;9.90;;;;;;;;;;4993082;28;20107;-83
2022/03/27 11:29:10;;;;;;;21.70;10.75;;;;;;;;;;4992932;28;20046;-84
2022/03/27 11:31:37;;;;;;;24.90;10.63;;;;;;;;;;4974500;28;20038;-82
2022/03/27 11:34:08;;;;;;;21.33;10.50;;;;;;;;;;4993849;28;20133;-82
2022/03/27 11:36:36;;;;;;;18.42;9.30;;;;;;;;;;4997826;28;20030;-83
2022/03/27 11:39:08;;;;;;;24.02;11.25;;;;;;;;;;4978029;28;20069;-79
2022/03/27 11:41:44;;;;;;;17.10;9.38;;;;;;;;;;4999815;28;20022;-80
2022/03/27 11:45:06;;;;;;;22.88;9.32;;;;;;;;;;4999695;28;20492;-79
2022/03/27 11:47:16;;;;;;;21.15;10.48;;;;;;;;;;5006824;28;20030;-80
2022/03/27 11:49:42;;;;;;;22.27;9.23;;;;;;;;;;5004305;28;20186;-80
2022/03/27 11:52:17;;;;;;;19.15;8.52;;;;;;;;;;4990561;28;20034;-82
2022/03/27 11:54:42;;;;;;;18.70;8.80;;;;;;;;;;4989572;28;20030;-81
2022/03/27 11:57:09;;;;;;;21.90;8.95;;;;;;;;;;4996058;28;20386;-80
2022/03/27 11:59:50;;;;;;;19.17;8.82;;;;;;;;;;4999057;28;20030;-80
2022/03/27 12:02:18;;;;;;;21.27;9.38;;;;;;;;;;4999769;28;20033;-80
2022/03/27 12:04:57;;;;;;;18.08;9.13;;;;;;;;;;4997603;28;20033;-80
2022/03/27 12:07:24;;;;;;;20.88;9.15;;;;;;;;;;4999790;28;20099;-80
2022/03/27 12:10:04;;;;;;;20.25;9.98;;;;;;;;;;4999600;28;20069;-81
2022/03/27 12:12:32;;;;;;;19.98;8.85;;;;;;;;;;4999406;28;20113;-79
2022/03/27 12:15:05;;;;;;;22.38;8.70;;;;;;;;;;4996991;28;20069;-80
2022/03/27 12:17:35;;;;;;;18.35;8.20;;;;;;;;;;5003450;28;20010;-80
2022/03/27 12:20:08;;;;;;;15.85;8.50;;;;;;;;;;5009777;28;20026;-80
2022/03/27 12:22:44;;;;;;;15.45;8.13;;;;;;;;;;5020247;28;20089;-80
2022/03/27 12:25:21;;;;;;;16.63;8.25;;;;;;;;;;5016854;28;20489;-80
2022/03/27 12:30:50;;;;;;;18.35;7.15;;;;;;;;;;5001357;28;20034;-80
2022/03/27 12:33:20;;;;;;;17.05;7.80;;;;;;;;;;5003428;28;20057;-80
2022/03/27 12:35:49;;;;;;;22.73;8.02;;;;;;;;;;4981691;28;20022;-79
2022/03/27 12:38:29;;;;;;;15.65;7.47;;;;;;;;;;5008990;28;20053;-80
2022/03/27 12:40:54;;;;;;;12.77;7.15;;;;;;;;;;4983637;28;20019;-80
2022/03/27 12:43:21;;;;;;;20.67;8.35;;;;;;;;;;5010014;28;20034;-79
2022/03/27 12:45:47;;;;;;;19.65;8.18;;;;;;;;;;5005972;28;20124;-79
2022/03/27 12:48:20;;;;;;;14.88;7.80;;;;;;;;;;4999018;28;20532;-79
2022/03/27 12:50:57;;;;;;;16.25;6.90;;;;;;;;;;4999906;28;20029;-79
2022/03/27 12:53:22;;;;;;;14.07;7.13;;;;;;;;;;4980808;28;20062;-79
2022/03/27 12:55:51;;;;;;;14.45;6.78;;;;;;;;;;4980793;28;20046;-80
2022/03/27 12:58:41;;;;;;;17.45;6.78;;;;;;;;;;4997789;28;20033;-80
2022/03/27 13:01:18;;;;;;;15.32;6.47;;;;;;;;;;4993514;28;20037;-80
2022/03/27 13:04:08;;;;;;;14.25;6.25;;;;;;;;;;4988477;28;20044;-79
2022/03/27 13:06:43;;;;;;;14.52;6.68;;;;;;;;;;4981151;28;20168;-80
2022/03/27 13:09:10;;;;;;;17.35;6.55;;;;;;;;;;4991984;28;20030;-80
2022/03/27 13:11:40;;;;;;;13.98;6.38;;;;;;;;;;4996487;28;20034;-79
2022/03/27 13:14:06;;;;;;;13.70;6.68;;;;;;;;;;4981981;28;20061;-81
2022/03/27 13:16:40;;;;;;;14.20;6.63;;;;;;;;;;4998771;28;20057;-80
2022/03/27 13:19:14;;;;;;;15.95;6.55;;;;;;;;;;4984505;28;20408;-80
2022/03/27 13:21:56;;;;;;;11.13;6.22;;;;;;;;;;5003510;28;20053;-80
2022/03/27 13:24:24;;;;;;;12.27;6.05;;;;;;;;;;5003628;28;20517;-80
2022/03/27 13:26:54;;;;;;;13.10;6.50;;;;;;;;;;5009816;28;20013;-80
2022/03/27 13:29:21;;;;;;;16.77;6.95;;;;;;;;;;4984093;28;20022;-80
2022/03/27 13:31:48;;;;;;;13.25;5.97;;;;;;;;;;4991709;28;20109;-79
2022/03/27 13:34:14;;;;;;;17.60;6.45;;;;;;;;;;4982930;28;20030;-79
2022/03/27 13:36:42;;;;;;;11.52;6.20;;;;;;;;;;5011314;28;20105;-79
2022/03/27 13:39:09;;;;;;;11.82;5.47;;;;;;;;;;5003696;28;20034;-79
2022/03/27 13:44:21;;;;;;;15.75;7.05;;;;;;;;;;5002643;28;20596;-80
2022/03/27 13:46:47;;;;;;;12.30;6.55;;;;;;;;;;5011131;28;20050;-79
2022/03/27 13:49:14;;;;;;;16.60;6.63;;;;;;;;;;5002452;28;20026;-79
2022/03/27 13:51:40;;;;;;;15.13;5.85;;;;;;;;;;4984073;28;20041;-80
2022/03/27 13:54:06;;;;;;;14.77;6.97;;;;;;;;;;4997230;28;20466;-78
2022/03/27 13:56:33;;;;;;;16.15;6.88;;;;;;;;;;4979311;28;20029;-80
2022/03/27 13:58:58;;;;;;;14.48;6.25;;;;;;;;;;5004724;28;20529;-80
2022/03/27 14:01:24;;;;;;;13.15;6.35;;;;;;;;;;5004944;28;20079;-81
2022/03/27 14:03:51;;;;;;;12.05;6.38;;;;;;;;;;5003339;28;20018;-80
2022/03/27 14:06:16;;;;;;;17.23;6.75;;;;;;;;;;5001043;28;20018;-80
2022/03/27 14:08:42;;;;;;;14.57;7.03;;;;;;;;;;5015939;28;20113;-80
2022/03/27 14:11:08;;;;;;;14.68;6.82;;;;;;;;;;5003490;28;20033;-80
2022/03/27 14:13:33;;;;;;;13.45;6.40;;;;;;;;;;5004255;28;20026;-80
2022/03/27 14:15:59;;;;;;;10.73;5.85;;;;;;;;;;5001774;28;20022;-80
2022/03/27 14:18:25;;;;;;;11.05;5.88;;;;;;;;;;4990376;28;20046;-80
2022/03/27 14:20:50;;;;;;;14.43;6.65;;;;;;;;;;5011663;28;20051;-80
2022/03/27 14:23:15;;;;;;;18.95;6.00;;;;;;;;;;5018291;28;20028;-80
2022/03/27 14:25:41;;;;;;;20.48;6.53;;;;;;;;;;4984258;28;20400;-80
2022/03/27 14:28:07;;;;;;;12.80;5.53;;;;;;;;;;5013781;28;20026;-80
2022/03/27 14:30:34;;;;;;;15.02;6.15;;;;;;;;;;5007378;28;20105;-80
2022/03/27 14:33:00;;;;;;;24.77;5.80;;;;;;;;;;5003892;28;20661;-80
2022/03/27 14:35:25;;;;;;;11.45;5.82;;;;;;;;;;4991791;28;20097;-79
2022/03/27 14:37:50;;;;;;;14.90;5.82;;;;;;;;;;4989460;28;20022;-80
2022/03/27 14:40:16;;;;;;;15.10;6.30;;;;;;;;;;4984437;28;20026;-79